Terminal Aerodrome Forecast
Issued by NWS Milwaukee/Sullivan, WI

Home | Current Version | Previous Version | Text Only | Print | Product List | Glossary On
Versions: 1 2 3 4 5 6 7 8 9 10 11 12 13 14 15 16 17 18 19 20 21 22 23 24 25 26 27 28 29 30 31 32 33 34 35 36 37 38 39 40 41 42 43 44 45 46 47 48 49 50
000
FTUS43 KMKX 231751
TAFMSN
TAF
KMSN 231751Z 2318/2418 32005KT P6SM VCTS BKN080CB
     FM231900 32005KT P6SM SHRA VCTS BKN060CB
     FM232100 34006KT P6SM SCT070
     FM240600 03004KT P6SM SCT040
     FM241100 02005KT 5SM BR BKN015
     FM241600 04007KT P6SM BKN025=

USA.gov is the U.S. government's official web portal to all federal, state and local government web resources and services.